sensor_id;sensor_type;location;lat;lon;timestamp;pressure;altitude;pressure_sealevel;temperature;humidity
6829;BME280;17930;48.592;8.868;2023-12-22T00:00:59;95605.81;;;6.82;100.00
6829;BME280;17930;48.592;8.868;2023-12-22T00:03:26;95592.00;;;6.87;100.00
6829;BME280;17930;48.592;8.868;2023-12-22T00:05:54;95607.13;;;6.80;100.00
6829;BME280;17930;48.592;8.868;2023-12-22T00:08:20;95583.81;;;6.80;100.00
6829;BME280;17930;48.592;8.868;2023-12-22T00:10:48;95590.19;;;6.87;100.00
6829;BME280;17930;48.592;8.868;2023-12-22T00:13:15;95600.66;;;7.01;100.00
6829;BME280;17930;48.592;8.868;2023-12-22T00:15:42;95590.31;;;7.01;100.00
6829;BME280;17930;48.592;8.868;2023-12-22T00:18:09;95591.13;;;7.14;100.00
6829;BME280;17930;48.592;8.868;2023-12-22T00:20:36;95576.03;;;7.21;100.00
6829;BME280;17930;48.592;8.868;2023-12-22T00:23:04;95585.81;;;7.24;100.00
6829;BME280;17930;48.592;8.868;2023-12-22T00:25:30;95580.63;;;7.24;100.00
6829;BME280;17930;48.592;8.868;2023-12-22T00:27:57;95580.47;;;7.39;100.00
6829;BME280;17930;48.592;8.868;2023-12-22T00:30:24;95592.94;;;7.37;100.00
6829;BME280;17930;48.592;8.868;2023-12-22T00:32:50;95610.25;;;7.42;100.00
6829;BME280;17930;48.592;8.868;2023-12-22T00:35:17;95598.63;;;7.39;100.00
6829;BME280;17930;48.592;8.868;2023-12-22T00:37:43;95621.03;;;7.30;100.00
6829;BME280;17930;48.592;8.868;2023-12-22T00:40:12;95625.88;;;7.37;100.00
6829;BME280;17930;48.592;8.868;2023-12-22T00:42:39;95620.25;;;7.30;100.00
6829;BME280;17930;48.592;8.868;2023-12-22T00:45:06;95618.94;;;7.32;100.00
6829;BME280;17930;48.592;8.868;2023-12-22T00:47:32;95601.25;;;7.34;100.00
6829;BME280;17930;48.592;8.868;2023-12-22T00:50:00;95587.69;;;7.42;100.00
6829;BME280;17930;48.592;8.868;2023-12-22T00:52:27;95581.31;;;7.35;100.00
6829;BME280;17930;48.592;8.868;2023-12-22T00:54:53;95604.81;;;7.20;100.00
6829;BME280;17930;48.592;8.868;2023-12-22T00:57:21;95612.31;;;7.21;100.00
6829;BME280;17930;48.592;8.868;2023-12-22T00:59:48;95642.09;;;7.24;100.00
6829;BME280;17930;48.592;8.868;2023-12-22T01:02:15;95615.97;;;7.20;100.00
6829;BME280;17930;48.592;8.868;2023-12-22T01:04:42;95625.34;;;6.93;100.00
6829;BME280;17930;48.592;8.868;2023-12-22T01:07:09;95603.84;;;6.69;100.00
6829;BME280;17930;48.592;8.868;2023-12-22T01:09:36;95612.63;;;6.45;100.00
6829;BME280;17930;48.592;8.868;2023-12-22T01:12:03;95632.91;;;6.38;100.00
6829;BME280;17930;48.592;8.868;2023-12-22T01:14:33;95631.91;;;6.34;100.00
6829;BME280;17930;48.592;8.868;2023-12-22T01:16:59;95630.22;;;6.20;100.00
6829;BME280;17930;48.592;8.868;2023-12-22T01:19:26;95651.19;;;6.18;100.00
6829;BME280;17930;48.592;8.868;2023-12-22T01:21:52;95663.38;;;6.18;100.00
6829;BME280;17930;48.592;8.868;2023-12-22T01:24:19;95677.88;;;6.14;100.00
6829;BME280;17930;48.592;8.868;2023-12-22T01:26:46;95693.19;;;6.11;100.00
6829;BME280;17930;48.592;8.868;2023-12-22T01:29:12;95677.16;;;6.09;100.00
6829;BME280;17930;48.592;8.868;2023-12-22T01:31:40;95703.06;;;6.04;100.00
6829;BME280;17930;48.592;8.868;2023-12-22T01:34:07;95676.72;;;5.97;100.00
6829;BME280;17930;48.592;8.868;2023-12-22T01:36:34;95695.31;;;5.99;100.00
6829;BME280;17930;48.592;8.868;2023-12-22T01:39:01;95659.41;;;5.92;100.00
6829;BME280;17930;48.592;8.868;2023-12-22T01:41:28;95658.63;;;5.92;100.00
6829;BME280;17930;48.592;8.868;2023-12-22T01:43:54;95668.69;;;5.98;100.00
6829;BME280;17930;48.592;8.868;2023-12-22T01:46:21;95681.59;;;6.03;100.00
6829;BME280;17930;48.592;8.868;2023-12-22T01:48:49;95675.63;;;6.03;100.00
6829;BME280;17930;48.592;8.868;2023-12-22T01:51:17;95660.50;;;6.19;100.00
6829;BME280;17930;48.592;8.868;2023-12-22T01:53:44;95667.81;;;6.12;100.00
6829;BME280;17930;48.592;8.868;2023-12-22T01:56:12;95675.63;;;6.08;100.00
6829;BME280;17930;48.592;8.868;2023-12-22T01:58:39;95690.13;;;6.04;100.00
6829;BME280;17930;48.592;8.868;2023-12-22T02:01:07;95688.56;;;6.03;100.00
6829;BME280;17930;48.592;8.868;2023-12-22T02:03:34;95687.69;;;6.17;100.00
6829;BME280;17930;48.592;8.868;2023-12-22T02:06:04;95685.28;;;6.30;100.00
6829;BME280;17930;48.592;8.868;2023-12-22T02:08:32;95676.97;;;6.33;100.00
6829;BME280;17930;48.592;8.868;2023-12-22T02:10:59;95686.50;;;6.38;100.00
6829;BME280;17930;48.592;8.868;2023-12-22T02:13:26;95653.03;;;6.46;100.00
6829;BME280;17930;48.592;8.868;2023-12-22T02:16:01;95635.03;;;6.31;100.00
6829;BME280;17930;48.592;8.868;2023-12-22T02:18:33;95646.72;;;6.29;100.00
6829;BME280;17930;48.592;8.868;2023-12-22T02:21:01;95634.81;;;6.28;100.00
6829;BME280;17930;48.592;8.868;2023-12-22T02:23:30;95641.13;;;6.45;100.00
6829;BME280;17930;48.592;8.868;2023-12-22T02:26:04;95645.56;;;6.40;100.00
6829;BME280;17930;48.592;8.868;2023-12-22T02:28:33;95653.53;;;6.48;100.00
6829;BME280;17930;48.592;8.868;2023-12-22T02:31:04;95669.59;;;6.50;100.00
6829;BME280;17930;48.592;8.868;2023-12-22T02:33:37;95675.25;;;6.52;100.00
6829;BME280;17930;48.592;8.868;2023-12-22T02:36:06;95675.75;;;6.54;100.00
6829;BME280;17930;48.592;8.868;2023-12-22T02:38:35;95674.69;;;6.55;100.00
6829;BME280;17930;48.592;8.868;2023-12-22T02:41:03;95679.41;;;6.48;100.00
6829;BME280;17930;48.592;8.868;2023-12-22T02:43:31;95679.34;;;6.58;100.00
6829;BME280;17930;48.592;8.868;2023-12-22T02:45:58;95684.41;;;6.68;100.00
6829;BME280;17930;48.592;8.868;2023-12-22T02:48:25;95684.84;;;6.80;100.00
6829;BME280;17930;48.592;8.868;2023-12-22T02:50:51;95682.56;;;6.73;100.00
6829;BME280;17930;48.592;8.868;2023-12-22T02:53:18;95701.19;;;6.47;100.00
6829;BME280;17930;48.592;8.868;2023-12-22T02:55:46;95697.13;;;6.36;100.00
6829;BME280;17930;48.592;8.868;2023-12-22T02:58:13;95690.28;;;6.17;100.00
6829;BME280;17930;48.592;8.868;2023-12-22T03:00:39;95701.91;;;6.19;100.00
6829;BME280;17930;48.592;8.868;2023-12-22T03:03:06;95690.47;;;6.25;100.00
6829;BME280;17930;48.592;8.868;2023-12-22T03:05:32;95670.84;;;6.19;100.00
6829;BME280;17930;48.592;8.868;2023-12-22T03:07:59;95680.75;;;6.12;100.00
6829;BME280;17930;48.592;8.868;2023-12-22T03:10:26;95700.47;;;6.04;100.00
6829;BME280;17930;48.592;8.868;2023-12-22T03:12:54;95694.28;;;6.05;100.00
6829;BME280;17930;48.592;8.868;2023-12-22T03:15:21;95700.28;;;5.95;100.00
6829;BME280;17930;48.592;8.868;2023-12-22T03:17:47;95700.03;;;5.92;100.00
6829;BME280;17930;48.592;8.868;2023-12-22T03:20:14;95706.22;;;5.96;100.00
6829;BME280;17930;48.592;8.868;2023-12-22T03:22:40;95702.84;;;6.33;100.00
6829;BME280;17930;48.592;8.868;2023-12-22T03:25:07;95688.25;;;6.47;100.00
6829;BME280;17930;48.592;8.868;2023-12-22T03:27:34;95704.25;;;6.54;100.00
6829;BME280;17930;48.592;8.868;2023-12-22T03:30:02;95685.59;;;6.52;100.00
6829;BME280;17930;48.592;8.868;2023-12-22T03:32:30;95685.53;;;6.62;100.00
6829;BME280;17930;48.592;8.868;2023-12-22T03:34:56;95697.03;;;6.79;100.00
6829;BME280;17930;48.592;8.868;2023-12-22T03:37:23;95671.88;;;6.80;100.00
6829;BME280;17930;48.592;8.868;2023-12-22T03:39:50;95678.16;;;6.74;100.00
6829;BME280;17930;48.592;8.868;2023-12-22T03:42:16;95662.19;;;6.67;100.00
6829;BME280;17930;48.592;8.868;2023-12-22T03:44:43;95665.59;;;6.63;100.00
6829;BME280;17930;48.592;8.868;2023-12-22T03:47:11;95670.53;;;6.59;100.00
6829;BME280;17930;48.592;8.868;2023-12-22T03:49:38;95683.72;;;6.63;100.00
6829;BME280;17930;48.592;8.868;2023-12-22T03:52:05;95678.25;;;6.64;100.00
6829;BME280;17930;48.592;8.868;2023-12-22T03:54:31;95683.44;;;6.64;100.00
6829;BME280;17930;48.592;8.868;2023-12-22T03:56:58;95680.22;;;6.77;100.00
6829;BME280;17930;48.592;8.868;2023-12-22T03:59:27;95676.31;;;6.79;100.00
6829;BME280;17930;48.592;8.868;2023-12-22T04:01:54;95673.44;;;6.81;100.00
6829;BME280;17930;48.592;8.868;2023-12-22T04:04:24;95677.00;;;6.85;100.00
6829;BME280;17930;48.592;8.868;2023-12-22T04:06:52;95668.69;;;6.88;100.00
6829;BME280;17930;48.592;8.868;2023-12-22T04:09:19;95667.38;;;6.90;100.00
6829;BME280;17930;48.592;8.868;2023-12-22T04:11:46;95671.69;;;7.00;100.00
6829;BME280;17930;48.592;8.868;2023-12-22T04:14:12;95696.66;;;6.91;100.00
6829;BME280;17930;48.592;8.868;2023-12-22T04:16:40;95698.28;;;6.82;100.00
6829;BME280;17930;48.592;8.868;2023-12-22T04:19:07;95702.03;;;6.99;100.00
6829;BME280;17930;48.592;8.868;2023-12-22T04:21:35;95698.16;;;6.97;100.00
6829;BME280;17930;48.592;8.868;2023-12-22T04:24:01;95679.84;;;6.88;100.00
6829;BME280;17930;48.592;8.868;2023-12-22T04:26:29;95694.06;;;6.91;100.00
6829;BME280;17930;48.592;8.868;2023-12-22T04:28:55;95692.72;;;6.70;100.00
6829;BME280;17930;48.592;8.868;2023-12-22T04:31:22;95722.66;;;6.53;100.00
6829;BME280;17930;48.592;8.868;2023-12-22T04:33:49;95688.94;;;6.58;100.00
6829;BME280;17930;48.592;8.868;2023-12-22T04:36:15;95726.56;;;6.45;100.00
6829;BME280;17930;48.592;8.868;2023-12-22T04:38:43;95723.50;;;6.43;100.00
6829;BME280;17930;48.592;8.868;2023-12-22T04:41:10;95739.31;;;6.37;100.00
6829;BME280;17930;48.592;8.868;2023-12-22T04:43:36;95740.13;;;6.37;100.00
6829;BME280;17930;48.592;8.868;2023-12-22T04:46:06;95740.13;;;6.37;100.00
6829;BME280;17930;48.592;8.868;2023-12-22T04:48:33;95745.84;;;6.29;100.00
6829;BME280;17930;48.592;8.868;2023-12-22T04:50:59;95744.84;;;6.25;100.00
6829;BME280;17930;48.592;8.868;2023-12-22T04:53:26;95764.53;;;6.26;100.00
6829;BME280;17930;48.592;8.868;2023-12-22T04:55:56;95780.06;;;6.26;100.00
6829;BME280;17930;48.592;8.868;2023-12-22T04:58:22;95778.47;;;6.30;100.00
6829;BME280;17930;48.592;8.868;2023-12-22T05:00:49;95766.56;;;6.34;100.00
6829;BME280;17930;48.592;8.868;2023-12-22T05:03:16;95768.31;;;6.39;100.00
6829;BME280;17930;48.592;8.868;2023-12-22T05:05:43;95763.75;;;6.64;100.00
6829;BME280;17930;48.592;8.868;2023-12-22T05:08:09;95773.59;;;6.62;100.00
6829;BME280;17930;48.592;8.868;2023-12-22T05:10:36;95763.22;;;6.62;100.00
6829;BME280;17930;48.592;8.868;2023-12-22T05:13:04;95756.34;;;6.81;100.00
6829;BME280;17930;48.592;8.868;2023-12-22T05:15:31;95743.44;;;6.76;100.00
6829;BME280;17930;48.592;8.868;2023-12-22T05:17:57;95751.69;;;6.78;100.00
6829;BME280;17930;48.592;8.868;2023-12-22T05:20:23;95734.56;;;6.82;100.00
6829;BME280;17930;48.592;8.868;2023-12-22T05:22:50;95740.25;;;6.84;100.00
6829;BME280;17930;48.592;8.868;2023-12-22T05:25:16;95747.78;;;6.80;100.00
6829;BME280;17930;48.592;8.868;2023-12-22T05:27:43;95750.72;;;6.74;100.00
6829;BME280;17930;48.592;8.868;2023-12-22T05:30:12;95751.69;;;6.78;100.00
6829;BME280;17930;48.592;8.868;2023-12-22T05:32:39;95757.59;;;6.88;100.00
6829;BME280;17930;48.592;8.868;2023-12-22T05:35:07;95766.56;;;6.96;100.00
6829;BME280;17930;48.592;8.868;2023-12-22T05:37:34;95765.00;;;7.00;100.00
6829;BME280;17930;48.592;8.868;2023-12-22T05:40:01;95754.16;;;6.93;100.00
6829;BME280;17930;48.592;8.868;2023-12-22T05:42:27;95766.31;;;6.97;100.00
6829;BME280;17930;48.592;8.868;2023-12-22T05:44:54;95767.84;;;6.98;100.00
6829;BME280;17930;48.592;8.868;2023-12-22T05:47:22;95767.31;;;7.01;100.00
6829;BME280;17930;48.592;8.868;2023-12-22T05:49:49;95781.03;;;7.02;100.00
6829;BME280;17930;48.592;8.868;2023-12-22T05:52:15;95769.81;;;7.11;100.00
6829;BME280;17930;48.592;8.868;2023-12-22T05:54:42;95783.53;;;7.12;100.00
6829;BME280;17930;48.592;8.868;2023-12-22T05:57:09;95789.00;;;7.10;100.00
6829;BME280;17930;48.592;8.868;2023-12-22T05:59:35;95784.88;;;7.09;100.00
6829;BME280;17930;48.592;8.868;2023-12-22T06:02:02;95791.03;;;7.13;100.00
6829;BME280;17930;48.592;8.868;2023-12-22T06:04:30;95769.22;;;7.19;100.00
6829;BME280;17930;48.592;8.868;2023-12-22T06:06:57;95799.53;;;7.18;100.00
6829;BME280;17930;48.592;8.868;2023-12-22T06:09:24;95799.09;;;7.12;100.00
6829;BME280;17930;48.592;8.868;2023-12-22T06:11:51;95810.00;;;7.09;100.00
6829;BME280;17930;48.592;8.868;2023-12-22T06:14:17;95795.16;;;6.86;100.00
6829;BME280;17930;48.592;8.868;2023-12-22T06:16:44;95812.16;;;6.63;100.00
6829;BME280;17930;48.592;8.868;2023-12-22T06:19:11;95812.81;;;6.46;100.00
6829;BME280;17930;48.592;8.868;2023-12-22T06:21:39;95824.50;;;6.38;100.00
6829;BME280;17930;48.592;8.868;2023-12-22T06:24:07;95825.66;;;6.17;100.00
6829;BME280;17930;48.592;8.868;2023-12-22T06:26:35;95821.84;;;6.00;100.00
6829;BME280;17930;48.592;8.868;2023-12-22T06:29:01;95836.66;;;5.90;100.00
6829;BME280;17930;48.592;8.868;2023-12-22T06:31:29;95837.44;;;5.85;100.00
6829;BME280;17930;48.592;8.868;2023-12-22T06:33:56;95854.28;;;5.78;100.00
6829;BME280;17930;48.592;8.868;2023-12-22T06:36:26;95857.13;;;5.86;100.00
6829;BME280;17930;48.592;8.868;2023-12-22T06:38:54;95856.81;;;5.93;100.00
6829;BME280;17930;48.592;8.868;2023-12-22T06:41:21;95852.59;;;6.16;100.00
6829;BME280;17930;48.592;8.868;2023-12-22T06:43:48;95873.22;;;6.31;100.00
6829;BME280;17930;48.592;8.868;2023-12-22T06:46:15;95862.78;;;6.46;100.00
6829;BME280;17930;48.592;8.868;2023-12-22T06:48:42;95859.34;;;6.61;100.00
6829;BME280;17930;48.592;8.868;2023-12-22T06:51:16;95859.13;;;6.57;100.00
6829;BME280;17930;48.592;8.868;2023-12-22T06:53:43;95862.72;;;6.56;100.00
6829;BME280;17930;48.592;8.868;2023-12-22T06:56:16;95850.25;;;6.63;100.00
6829;BME280;17930;48.592;8.868;2023-12-22T06:58:43;95860.91;;;6.57;100.00
6829;BME280;17930;48.592;8.868;2023-12-22T07:01:11;95860.69;;;6.48;100.00
6829;BME280;17930;48.592;8.868;2023-12-22T07:03:38;95863.81;;;6.45;100.00
6829;BME280;17930;48.592;8.868;2023-12-22T07:06:05;95856.59;;;6.42;100.00
6829;BME280;17930;48.592;8.868;2023-12-22T07:08:32;95878.59;;;6.40;100.00
6829;BME280;17930;48.592;8.868;2023-12-22T07:10:59;95867.53;;;6.34;100.00
6829;BME280;17930;48.592;8.868;2023-12-22T07:13:26;95874.28;;;6.30;100.00
6829;BME280;17930;48.592;8.868;2023-12-22T07:15:53;95874.28;;;6.30;100.00
6829;BME280;17930;48.592;8.868;2023-12-22T07:18:20;95878.16;;;6.28;100.00
6829;BME280;17930;48.592;8.868;2023-12-22T07:20:46;95889.75;;;6.40;100.00
6829;BME280;17930;48.592;8.868;2023-12-22T07:23:14;95878.59;;;6.45;100.00
6829;BME280;17930;48.592;8.868;2023-12-22T07:25:44;95880.97;;;6.41;100.00
6829;BME280;17930;48.592;8.868;2023-12-22T07:28:11;95886.16;;;6.36;100.00
6829;BME280;17930;48.592;8.868;2023-12-22T07:30:39;95880.97;;;6.36;100.00
6829;BME280;17930;48.592;8.868;2023-12-22T07:33:05;95880.97;;;6.36;100.00
6829;BME280;17930;48.592;8.868;2023-12-22T07:35:32;95893.97;;;6.26;100.00
6829;BME280;17930;48.592;8.868;2023-12-22T07:37:59;95906.88;;;6.31;100.00
6829;BME280;17930;48.592;8.868;2023-12-22T07:40:25;95890.56;;;6.36;100.00
6829;BME280;17930;48.592;8.868;2023-12-22T07:42:52;95887.47;;;6.29;100.00
6829;BME280;17930;48.592;8.868;2023-12-22T07:45:20;95891.88;;;6.28;100.00
6829;BME280;17930;48.592;8.868;2023-12-22T07:47:47;95907.16;;;6.25;100.00
6829;BME280;17930;48.592;8.868;2023-12-22T07:50:14;95894.16;;;6.40;100.00
6829;BME280;17930;48.592;8.868;2023-12-22T07:52:41;95893.63;;;6.43;100.00
6829;BME280;17930;48.592;8.868;2023-12-22T07:55:09;95892.25;;;6.55;100.00
6829;BME280;17930;48.592;8.868;2023-12-22T07:57:36;95889.66;;;6.60;100.00
6829;BME280;17930;48.592;8.868;2023-12-22T08:00:04;95898.13;;;6.75;100.00
6829;BME280;17930;48.592;8.868;2023-12-22T08:02:31;95881.44;;;6.86;100.00
6829;BME280;17930;48.592;8.868;2023-12-22T08:04:59;95868.50;;;6.86;100.00
6829;BME280;17930;48.592;8.868;2023-12-22T08:07:26;95878.34;;;6.84;100.00
6829;BME280;17930;48.592;8.868;2023-12-22T08:09:53;95894.94;;;6.88;100.00
6829;BME280;17930;48.592;8.868;2023-12-22T08:12:19;95895.63;;;6.99;100.00
6829;BME280;17930;48.592;8.868;2023-12-22T08:14:46;95912.72;;;7.00;100.00
6829;BME280;17930;48.592;8.868;2023-12-22T08:17:13;95908.03;;;7.02;100.00
6829;BME280;17930;48.592;8.868;2023-12-22T08:19:39;95895.06;;;7.07;100.00
6829;BME280;17930;48.592;8.868;2023-12-22T08:22:10;95891.94;;;7.05;100.00
6829;BME280;17930;48.592;8.868;2023-12-22T08:24:38;95878.66;;;6.78;100.00
6829;BME280;17930;48.592;8.868;2023-12-22T08:27:05;95891.16;;;6.71;100.00
6829;BME280;17930;48.592;8.868;2023-12-22T08:29:32;95859.06;;;6.67;100.00
6829;BME280;17930;48.592;8.868;2023-12-22T08:31:58;95893.97;;;6.74;100.00
6829;BME280;17930;48.592;8.868;2023-12-22T08:34:25;95887.50;;;6.77;100.00
6829;BME280;17930;48.592;8.868;2023-12-22T08:36:52;95904.31;;;6.79;100.00
6829;BME280;17930;48.592;8.868;2023-12-22T08:39:20;95897.31;;;6.80;100.00
6829;BME280;17930;48.592;8.868;2023-12-22T08:41:47;95891.78;;;6.91;100.00
6829;BME280;17930;48.592;8.868;2023-12-22T08:44:14;95894.00;;;7.08;100.00
6829;BME280;17930;48.592;8.868;2023-12-22T08:46:41;95893.22;;;7.12;100.00
6829;BME280;17930;48.592;8.868;2023-12-22T08:49:07;95878.97;;;7.10;100.00
6829;BME280;17930;48.592;8.868;2023-12-22T08:51:34;95873.25;;;7.08;100.00
6829;BME280;17930;48.592;8.868;2023-12-22T08:54:01;95872.75;;;7.06;100.00
6829;BME280;17930;48.592;8.868;2023-12-22T08:56:30;95879.72;;;7.10;100.00
6829;BME280;17930;48.592;8.868;2023-12-22T08:58:57;95899.91;;;7.18;100.00
6829;BME280;17930;48.592;8.868;2023-12-22T09:01:26;95897.53;;;7.21;100.00
6829;BME280;17930;48.592;8.868;2023-12-22T09:03:52;95904.47;;;7.26;100.00
6829;BME280;17930;48.592;8.868;2023-12-22T09:06:20;95911.47;;;7.30;100.00
6829;BME280;17930;48.592;8.868;2023-12-22T09:08:47;95898.03;;;7.23;100.00
6829;BME280;17930;48.592;8.868;2023-12-22T09:11:16;95908.22;;;7.15;100.00
6829;BME280;17930;48.592;8.868;2023-12-22T09:13:45;95894.97;;;7.16;100.00
6829;BME280;17930;48.592;8.868;2023-12-22T09:16:12;95906.16;;;7.12;100.00
6829;BME280;17930;48.592;8.868;2023-12-22T09:18:40;95914.00;;;7.02;100.00
6829;BME280;17930;48.592;8.868;2023-12-22T09:21:08;95922.34;;;6.94;100.00
6829;BME280;17930;48.592;8.868;2023-12-22T09:23:34;95921.09;;;6.87;100.00
6829;BME280;17930;48.592;8.868;2023-12-22T09:26:01;95937.72;;;6.81;100.00
6829;BME280;17930;48.592;8.868;2023-12-22T09:28:27;95947.31;;;6.80;100.00
6829;BME280;17930;48.592;8.868;2023-12-22T09:30:55;95937.78;;;6.71;100.00
6829;BME280;17930;48.592;8.868;2023-12-22T09:33:22;95938.28;;;6.68;100.00
6829;BME280;17930;48.592;8.868;2023-12-22T09:35:49;95943.47;;;6.68;100.00
6829;BME280;17930;48.592;8.868;2023-12-22T09:38:16;95940.88;;;6.73;100.00
6829;BME280;17930;48.592;8.868;2023-12-22T09:40:43;95943.97;;;6.75;100.00
6829;BME280;17930;48.592;8.868;2023-12-22T09:43:14;95935.91;;;6.76;100.00
6829;BME280;17930;48.592;8.868;2023-12-22T09:45:41;95940.81;;;6.83;100.00
6829;BME280;17930;48.592;8.868;2023-12-22T09:48:10;95945.19;;;6.92;100.00
6829;BME280;17930;48.592;8.868;2023-12-22T09:50:43;95955.56;;;6.92;100.00
6829;BME280;17930;48.592;8.868;2023-12-22T09:53:11;95943.06;;;6.99;100.00
6829;BME280;17930;48.592;8.868;2023-12-22T09:55:41;95942.25;;;7.04;100.00
6829;BME280;17930;48.592;8.868;2023-12-22T09:58:08;95940.66;;;7.08;100.00
6829;BME280;17930;48.592;8.868;2023-12-22T10:00:36;95946.91;;;7.07;100.00
6829;BME280;17930;48.592;8.868;2023-12-22T10:03:04;95935.66;;;7.16;100.00
6829;BME280;17930;48.592;8.868;2023-12-22T10:05:33;95931.75;;;7.23;100.00
6829;BME280;17930;48.592;8.868;2023-12-22T10:08:01;95927.09;;;7.20;100.00
6829;BME280;17930;48.592;8.868;2023-12-22T10:10:28;95928.41;;;7.18;100.00
6829;BME280;17930;48.592;8.868;2023-12-22T10:12:56;95911.31;;;7.17;100.00
6829;BME280;17930;48.592;8.868;2023-12-22T10:15:24;95911.00;;;7.23;100.00
6829;BME280;17930;48.592;8.868;2023-12-22T10:17:51;95911.78;;;7.24;100.00
6829;BME280;17930;48.592;8.868;2023-12-22T10:20:18;95928.91;;;7.20;100.00
6829;BME280;17930;48.592;8.868;2023-12-22T10:22:46;95936.69;;;7.20;100.00
6829;BME280;17930;48.592;8.868;2023-12-22T10:25:14;95932.59;;;7.14;100.00
6829;BME280;17930;48.592;8.868;2023-12-22T10:27:42;95932.38;;;7.11;100.00
6829;BME280;17930;48.592;8.868;2023-12-22T10:30:09;95923.06;;;7.05;100.00
6829;BME280;17930;48.592;8.868;2023-12-22T10:32:39;95924.34;;;7.07;100.00
6829;BME280;17930;48.592;8.868;2023-12-22T10:35:07;95922.28;;;7.04;100.00
6829;BME280;17930;48.592;8.868;2023-12-22T10:37:34;95921.53;;;6.99;100.00
6829;BME280;17930;48.592;8.868;2023-12-22T10:40:06;95928.81;;;6.97;100.00
6829;BME280;17930;48.592;8.868;2023-12-22T10:42:32;95929.91;;;6.91;100.00
6829;BME280;17930;48.592;8.868;2023-12-22T10:45:00;95925.50;;;6.86;100.00
6829;BME280;17930;48.592;8.868;2023-12-22T10:47:27;95921.88;;;6.87;100.00
6829;BME280;17930;48.592;8.868;2023-12-22T10:49:54;95915.94;;;6.87;100.00
6829;BME280;17930;48.592;8.868;2023-12-22T10:52:21;95915.44;;;6.80;100.00
6829;BME280;17930;48.592;8.868;2023-12-22T10:54:48;95921.72;;;6.74;100.00
6829;BME280;17930;48.592;8.868;2023-12-22T10:57:18;95909.78;;;6.73;100.00
6829;BME280;17930;48.592;8.868;2023-12-22T10:59:47;95911.63;;;6.67;100.00
6829;BME280;17930;48.592;8.868;2023-12-22T11:02:16;95908.28;;;6.67;100.00
6829;BME280;17930;48.592;8.868;2023-12-22T11:04:48;95898.44;;;6.64;100.00
6829;BME280;17930;48.592;8.868;2023-12-22T11:07:18;95903.91;;;6.63;100.00
6829;BME280;17930;48.592;8.868;2023-12-22T11:09:49;95912.44;;;6.63;100.00
6829;BME280;17930;48.592;8.868;2023-12-22T11:12:18;95906.75;;;6.61;100.00
6829;BME280;17930;48.592;8.868;2023-12-22T11:14:46;95912.69;;;6.62;100.00
6829;BME280;17930;48.592;8.868;2023-12-22T11:17:18;95911.41;;;6.64;100.00
6829;BME280;17930;48.592;8.868;2023-12-22T11:19:47;95902.59;;;6.60;100.00
6829;BME280;17930;48.592;8.868;2023-12-22T11:22:16;95900.56;;;6.57;100.00
6829;BME280;17930;48.592;8.868;2023-12-22T11:24:46;95911.69;;;6.58;100.00
6829;BME280;17930;48.592;8.868;2023-12-22T11:27:13;95896.91;;;6.58;100.00
6829;BME280;17930;48.592;8.868;2023-12-22T11:29:45;95888.34;;;6.63;100.00
6829;BME280;17930;48.592;8.868;2023-12-22T11:32:14;95890.69;;;6.64;100.00
6829;BME280;17930;48.592;8.868;2023-12-22T11:34:42;95892.19;;;6.65;100.00
6829;BME280;17930;48.592;8.868;2023-12-22T11:37:11;95886.53;;;6.63;100.00
6829;BME280;17930;48.592;8.868;2023-12-22T11:39:37;95889.88;;;6.63;100.00
6829;BME280;17930;48.592;8.868;2023-12-22T11:42:06;95883.44;;;6.56;100.00
6829;BME280;17930;48.592;8.868;2023-12-22T11:44:33;95875.13;;;6.64;100.00
6829;BME280;17930;48.592;8.868;2023-12-22T11:47:06;95869.41;;;6.67;100.00
6829;BME280;17930;48.592;8.868;2023-12-22T11:49:33;95856.47;;;6.62;100.00
6829;BME280;17930;48.592;8.868;2023-12-22T11:52:12;95854.13;;;6.65;100.00
6829;BME280;17930;48.592;8.868;2023-12-22T11:54:49;95849.13;;;6.79;100.00
6829;BME280;17930;48.592;8.868;2023-12-22T11:57:32;95852.28;;;6.71;100.00
6829;BME280;17930;48.592;8.868;2023-12-22T12:00:02;95839.84;;;6.68;100.00
6829;BME280;17930;48.592;8.868;2023-12-22T12:02:34;95834.94;;;6.66;100.00
6829;BME280;17930;48.592;8.868;2023-12-22T12:05:02;95838.53;;;6.70;100.00
6829;BME280;17930;48.592;8.868;2023-12-22T12:07:39;95827.66;;;6.73;100.00
6829;BME280;17930;48.592;8.868;2023-12-22T12:10:07;95832.59;;;6.70;100.00
6829;BME280;17930;48.592;8.868;2023-12-22T12:12:34;95820.69;;;6.69;100.00
6829;BME280;17930;48.592;8.868;2023-12-22T12:15:10;95815.97;;;6.76;100.00
6829;BME280;17930;48.592;8.868;2023-12-22T12:17:42;95809.50;;;6.73;100.00
6829;BME280;17930;48.592;8.868;2023-12-22T12:20:10;95815.44;;;6.79;100.00
6829;BME280;17930;48.592;8.868;2023-12-22T12:22:38;95799.88;;;6.79;100.00
6829;BME280;17930;48.592;8.868;2023-12-22T12:25:09;95801.66;;;6.83;100.00
6829;BME280;17930;48.592;8.868;2023-12-22T12:27:37;95795.16;;;6.86;100.00
6829;BME280;17930;48.592;8.868;2023-12-22T12:30:12;95777.22;;;6.94;100.00
6829;BME280;17930;48.592;8.868;2023-12-22T12:32:42;95790.16;;;6.99;100.00
6829;BME280;17930;48.592;8.868;2023-12-22T12:35:10;95773.50;;;7.05;100.00
6829;BME280;17930;48.592;8.868;2023-12-22T12:37:38;95775.28;;;7.10;100.00
6829;BME280;17930;48.592;8.868;2023-12-22T12:40:07;95764.34;;;7.13;100.00
6829;BME280;17930;48.592;8.868;2023-12-22T12:42:36;95762.03;;;7.11;100.00
6829;BME280;17930;48.592;8.868;2023-12-22T12:45:04;95757.13;;;7.10;100.00
6829;BME280;17930;48.592;8.868;2023-12-22T12:47:31;95760.47;;;7.10;100.00
6829;BME280;17930;48.592;8.868;2023-12-22T12:50:00;95750.56;;;7.17;100.00
6829;BME280;17930;48.592;8.868;2023-12-22T12:52:27;95756.50;;;7.17;100.00
6829;BME280;17930;48.592;8.868;2023-12-22T12:54:54;95749.44;;;7.23;100.00
6829;BME280;17930;48.592;8.868;2023-12-22T12:57:21;95758.56;;;7.20;100.00
6829;BME280;17930;48.592;8.868;2023-12-22T12:59:48;95758.50;;;7.25;100.00
6829;BME280;17930;48.592;8.868;2023-12-22T13:02:16;95760.56;;;7.28;100.00
6829;BME280;17930;48.592;8.868;2023-12-22T13:04:43;95757.97;;;7.28;100.00
6829;BME280;17930;48.592;8.868;2023-12-22T13:07:11;95755.88;;;7.30;100.00
6829;BME280;17930;48.592;8.868;2023-12-22T13:09:40;95752.47;;;7.35;100.00
6829;BME280;17930;48.592;8.868;2023-12-22T13:12:08;95769.53;;;7.36;100.00